This is the latest recevied weather packets stored in our database for station/object DO7CRZ-12. If no packets are shown the sender has not sent any weather packets the latest 1 day(s).
| Time | Temp. | Humidity | Pressure | Rain* | Wind** | Luminosity | Snow |
|---|---|---|---|---|---|---|---|
| 1778082436 | 23.89° C | 45% | 1004.5 hPa | 0 mm | - | 51 W/m² | - |
| 1778081245 | 26.67° C | 38% | 1004.5 hPa | 0 mm | - | 109 W/m² | - |
| 1778080039 | 26.11° C | 41% | 1004.7 hPa | 0 mm | - | 257 W/m² | - |
| 1778077040 | 25° C | 43% | 1004.8 hPa | 0 mm | - | 338 W/m² | - |
| 1778073438 | 23.89° C | 45% | 1005.1 hPa | 0 mm | - | 286 W/m² | - |
| 1778072850 | 23.89° C | 44% | 1005.1 hPa | 0 mm | - | 327 W/m² | - |
| 1778071644 | 23.33° C | 45% | 1005.2 hPa | 0 mm | - | 492 W/m² | - |
| 1778071041 | 23.89° C | 45% | 1005.2 hPa | 0 mm | - | 352 W/m² | - |
| 1778070438 | 23.33° C | 47% | 1005.3 hPa | 0 mm | - | 549 W/m² | - |
| 1778069836 | 21.11° C | 55% | 1005.3 hPa | 0 mm | - | 528 W/m² | - |
| 1778068645 | 20° C | 57% | 1005.2 hPa | 0 mm | - | 57 W/m² | - |
| 1778068042 | 19.44° C | 57% | 1005.3 hPa | 0 mm | - | 114 W/m² | - |
| 1778066837 | 19.44° C | 56% | 1005.2 hPa | 0 mm | - | 33 W/m² | - |
| 1778065043 | 21.67° C | 52% | 1005.1 hPa | 0 mm | - | 79 W/m² | - |
| 1778063249 | 21.11° C | 55% | 1005.2 hPa | 0 mm | - | 614 W/m² | - |
| 1778061440 | 19.44° C | 63% | 1005.2 hPa | 0 mm | - | 251 W/m² | - |
| 1778060249 | 17.78° C | 66% | 1005.1 hPa | 0 mm | - | 99 W/m² | - |
| 1778059646 | 18.33° C | 64% | 1004.9 hPa | 0 mm | - | 47 W/m² | - |
| 1778058440 | 21.11° C | 56% | 1004.8 hPa | 0 mm | - | 497 W/m² | - |
| 1778057837 | 18.89° C | 65% | 1004.7 hPa | 0 mm | - | 459 W/m² | - |
| 1778056044 | 20° C | 60% | 1004.5 hPa | 0 mm | - | 377 W/m² | - |
| 1778054837 | 17.78° C | 71% | 1004.5 hPa | 0 mm | - | 196 W/m² | - |
| 1778054250 | 16.67° C | 73% | 1004.4 hPa | 0 mm | - | 62 W/m² | - |
| 1778053647 | 16.67° C | 75% | 1004.4 hPa | 0 mm | - | 69 W/m² | - |
| 1778053044 | 16.11° C | 77% | 1004.6 hPa | 0 mm | - | 72 W/m² | - |
* Rain latest hour (hover to see other rain measurements)
** Current wind speed in m/s (hover to see current wind gust speed)